Time;durP1;ratioP1;P1;durP2;ratioP2;P2;SDS_P1;SDS_P2;PMS_P1;PMS_P2;Temp;Humidity;BMP_temperature;BMP_pressure;BME280_temperature;BME280_humidity;BME280_pressure;Samples;Min_cycle;Max_cycle;Signal;HPM_P1;HPM_P2
2023/08/06 00:01:05;;;;;;;8.95;8.65;;;15.30;99.90;;;;;;6260402;22;20194;-83
2023/08/06 00:03:32;;;;;;;9.07;8.77;;;15.20;99.90;;;;;;6261184;22;20222;-82
2023/08/06 00:05:59;;;;;;;8.88;8.57;;;15.20;99.90;;;;;;6260138;22;20229;-82
2023/08/06 00:08:26;;;;;;;8.90;8.60;;;15.20;99.90;;;;;;6260966;22;20228;-82
2023/08/06 00:10:53;;;;;;;9.00;8.70;;;15.20;99.90;;;;;;6261348;22;20197;-82
2023/08/06 00:13:20;;;;;;;8.90;8.60;;;15.20;99.90;;;;;;6261684;22;20268;-82
2023/08/06 00:15:49;;;;;;;9.10;8.80;;;15.10;99.90;;;;;;6266662;22;20220;-83
2023/08/06 00:18:16;;;;;;;9.00;8.70;;;15.10;99.90;;;;;;6258210;22;20190;-82
2023/08/06 00:20:43;;;;;;;9.02;8.73;;;15.10;99.90;;;;;;6257775;22;20214;-83
2023/08/06 00:23:10;;;;;;;8.90;8.60;;;15.10;99.90;;;;;;6259319;22;20209;-82
2023/08/06 00:25:38;;;;;;;9.00;8.70;;;15.20;99.90;;;;;;6259282;22;20194;-83
2023/08/06 00:28:05;;;;;;;8.90;8.60;;;15.10;99.90;;;;;;6247297;22;20224;-82
2023/08/06 00:30:33;;;;;;;8.93;8.63;;;15.20;99.90;;;;;;6259318;22;20234;-83
2023/08/06 00:33:01;;;;;;;9.10;8.80;;;15.20;99.90;;;;;;6259737;22;20225;-84
2023/08/06 00:35:28;;;;;;;9.10;8.80;;;15.20;99.90;;;;;;6259534;22;20286;-81
2023/08/06 00:37:55;;;;;;;9.10;8.80;;;15.20;99.90;;;;;;6259315;22;20209;-82
2023/08/06 00:40:23;;;;;;;8.95;8.65;;;15.20;99.90;;;;;;6260387;22;20237;-82
2023/08/06 00:42:50;;;;;;;9.10;8.80;;;15.20;99.90;;;;;;6259452;22;20248;-83
2023/08/06 00:45:17;;;;;;;8.90;8.60;;;15.30;99.90;;;;;;6264755;22;20178;-82
2023/08/06 00:47:45;;;;;;;9.10;8.80;;;15.30;99.90;;;;;;6265443;22;20194;-82
2023/08/06 00:50:14;;;;;;;9.20;8.90;;;15.30;99.90;;;;;;6263389;22;20260;-83
2023/08/06 00:52:41;;;;;;;8.90;8.60;;;15.30;99.90;;;;;;6261665;22;20264;-82
2023/08/06 00:55:10;;;;;;;8.90;8.60;;;15.40;99.90;;;;;;6260458;22;20260;-81
2023/08/06 00:57:37;;;;;;;9.20;8.90;;;15.30;99.90;;;;;;6259596;22;20202;-81
2023/08/06 01:00:05;;;;;;;9.20;8.90;;;15.30;99.90;;;;;;6246304;22;20205;-82
2023/08/06 01:02:33;;;;;;;9.00;8.70;;;15.40;99.90;;;;;;6262696;22;20214;-83
2023/08/06 01:05:00;;;;;;;9.27;8.98;;;15.40;99.90;;;;;;6264640;22;20198;-81
2023/08/06 01:07:46;;;;;;;9.00;8.70;;;15.40;99.90;;;;;;6262153;22;20191;-83
2023/08/06 01:10:27;;;;;;;9.20;8.90;;;15.30;99.90;;;;;;6248912;22;20190;-83
2023/08/06 01:13:07;;;;;;;8.98;8.68;;;15.30;99.90;;;;;;6260795;22;20218;-84
2023/08/06 01:15:40;;;;;;;9.20;8.90;;;15.40;99.90;;;;;;6261390;22;20206;-83
2023/08/06 01:18:08;;;;;;;9.13;8.82;;;15.30;99.90;;;;;;6274507;22;20247;-83
2023/08/06 01:20:36;;;;;;;9.20;8.90;;;15.30;99.90;;;;;;6275330;22;20225;-82
2023/08/06 01:23:03;;;;;;;9.20;8.90;;;15.30;99.90;;;;;;6270181;22;20608;-81
2023/08/06 01:25:35;;;;;;;9.10;8.80;;;15.30;99.90;;;;;;6260628;22;20190;-81
2023/08/06 01:28:14;;;;;;;9.10;8.80;;;15.20;99.90;;;;;;6260822;22;20190;-81
2023/08/06 01:30:43;;;;;;;9.23;8.93;;;15.20;99.90;;;;;;6260031;22;20190;-82
2023/08/06 01:33:17;;;;;;;9.30;9.00;;;15.20;99.90;;;;;;6260066;22;20206;-82
2023/08/06 01:35:47;;;;;;;9.15;8.85;;;15.20;99.90;;;;;;6259591;22;20189;-81
2023/08/06 01:38:14;;;;;;;9.23;8.93;;;15.20;99.90;;;;;;6267281;22;20195;-81
2023/08/06 01:40:41;;;;;;;9.07;8.77;;;15.20;99.90;;;;;;6256395;22;20245;-82
2023/08/06 01:43:08;;;;;;;8.80;8.50;;;15.20;99.90;;;;;;6256689;22;20293;-81
2023/08/06 01:45:35;;;;;;;9.10;8.80;;;15.10;99.90;;;;;;6257739;22;20194;-81
2023/08/06 01:48:03;;;;;;;9.10;8.80;;;15.10;99.90;;;;;;6258923;22;20644;-81
2023/08/06 01:50:30;;;;;;;9.00;8.70;;;15.10;99.90;;;;;;6258451;22;20190;-82
2023/08/06 01:52:58;;;;;;;9.20;8.90;;;15.10;99.90;;;;;;6258497;22;20210;-82
2023/08/06 01:55:25;;;;;;;9.13;8.82;;;15.10;99.90;;;;;;6258385;22;20201;-81
2023/08/06 01:57:52;;;;;;;9.00;8.70;;;15.20;99.90;;;;;;6259142;22;20265;-82
2023/08/06 02:00:19;;;;;;;8.93;8.63;;;15.10;99.90;;;;;;6258498;22;20198;-82
2023/08/06 02:02:47;;;;;;;9.00;8.70;;;15.10;99.90;;;;;;6258467;22;20280;-82
2023/08/06 02:05:14;;;;;;;9.07;8.77;;;15.10;99.90;;;;;;6259751;22;20286;-81
2023/08/06 02:07:41;;;;;;;8.98;8.68;;;15.10;99.90;;;;;;6258914;22;20252;-81
2023/08/06 02:10:10;;;;;;;9.20;8.90;;;15.10;99.90;;;;;;6259478;22;20249;-80
2023/08/06 02:12:37;;;;;;;9.20;8.90;;;15.00;99.90;;;;;;6258098;22;20207;-80
2023/08/06 02:15:05;;;;;;;9.20;8.90;;;15.00;99.90;;;;;;6258876;22;20212;-81
2023/08/06 02:17:32;;;;;;;9.05;8.75;;;15.00;99.90;;;;;;6258298;22;20214;-80
2023/08/06 02:20:00;;;;;;;9.13;8.82;;;15.00;99.90;;;;;;6258838;22;20210;-81
2023/08/06 02:22:27;;;;;;;9.20;8.90;;;15.00;99.90;;;;;;6260002;22;20198;-81
2023/08/06 02:24:54;;;;;;;9.13;8.82;;;15.00;99.90;;;;;;6258418;22;20208;-81
2023/08/06 02:27:23;;;;;;;9.20;8.90;;;15.00;99.90;;;;;;6258373;22;20252;-81
2023/08/06 02:29:50;;;;;;;9.13;8.82;;;14.90;99.90;;;;;;6264839;22;20225;-81
2023/08/06 02:32:17;;;;;;;9.30;9.00;;;14.90;99.90;;;;;;6258797;22;20251;-81
2023/08/06 02:34:44;;;;;;;9.13;8.82;;;14.90;99.90;;;;;;6256820;22;20210;-81
2023/08/06 02:37:11;;;;;;;9.20;8.90;;;14.80;99.90;;;;;;6257369;22;20194;-80
2023/08/06 02:39:39;;;;;;;9.17;8.87;;;14.80;99.90;;;;;;6256848;22;20297;-81
2023/08/06 02:42:08;;;;;;;9.10;8.80;;;14.80;99.90;;;;;;6270619;22;20259;-80
2023/08/06 02:44:36;;;;;;;8.93;8.63;;;14.70;99.90;;;;;;6279685;22;20220;-80
2023/08/06 02:47:04;;;;;;;9.10;8.80;;;14.80;99.90;;;;;;6280825;22;20183;-80
2023/08/06 02:49:31;;;;;;;9.10;8.80;;;14.70;99.90;;;;;;6280855;22;20178;-81
2023/08/06 02:51:58;;;;;;;9.07;8.77;;;14.70;99.90;;;;;;6279126;22;20186;-81
2023/08/06 02:54:25;;;;;;;9.10;8.80;;;14.70;99.90;;;;;;6265350;22;20216;-82
2023/08/06 02:56:52;;;;;;;9.10;8.80;;;14.80;99.90;;;;;;6264345;22;20190;-82
2023/08/06 02:59:19;;;;;;;9.20;8.90;;;14.70;99.90;;;;;;6262127;22;20206;-81
2023/08/06 03:01:48;;;;;;;9.10;8.80;;;14.80;99.90;;;;;;6261379;22;20646;-81
2023/08/06 03:04:15;;;;;;;9.15;8.85;;;14.70;99.90;;;;;;6260411;22;20269;-82
2023/08/06 03:06:42;;;;;;;9.20;8.90;;;14.80;99.90;;;;;;6259274;22;20245;-82
2023/08/06 03:09:09;;;;;;;9.23;8.93;;;14.80;99.90;;;;;;6258865;22;20257;-81
2023/08/06 03:11:36;;;;;;;9.20;8.90;;;14.80;99.90;;;;;;6258672;22;20194;-82
2023/08/06 03:14:03;;;;;;;9.00;8.70;;;14.80;99.90;;;;;;6258315;22;20287;-81
2023/08/06 03:16:30;;;;;;;9.05;8.75;;;14.70;99.90;;;;;;6259515;22;20226;-81
2023/08/06 03:18:58;;;;;;;9.13;8.82;;;14.60;99.90;;;;;;6259376;22;20253;-81
2023/08/06 03:21:25;;;;;;;9.13;8.83;;;14.60;99.90;;;;;;6259512;22;20206;-81
2023/08/06 03:23:53;;;;;;;9.23;8.93;;;14.60;99.90;;;;;;6267796;22;20282;-80
2023/08/06 03:26:20;;;;;;;9.20;8.90;;;14.50;99.90;;;;;;6262218;22;20201;-81
2023/08/06 03:28:47;;;;;;;9.30;9.00;;;14.40;99.90;;;;;;6261157;22;20202;-82
2023/08/06 03:31:14;;;;;;;9.07;8.77;;;14.30;99.90;;;;;;6258184;22;20205;-81
2023/08/06 03:33:41;;;;;;;9.17;8.87;;;14.30;99.90;;;;;;6258783;22;20202;-81
2023/08/06 03:36:10;;;;;;;9.10;8.80;;;14.20;99.90;;;;;;6259673;22;20221;-82
2023/08/06 03:38:37;;;;;;;9.10;8.80;;;14.20;99.90;;;;;;6258963;22;21138;-81
2023/08/06 03:41:04;;;;;;;9.07;8.77;;;14.10;99.90;;;;;;6258426;22;20728;-80
2023/08/06 03:43:31;;;;;;;9.17;8.87;;;14.10;99.90;;;;;;6258747;22;20202;-82
2023/08/06 03:45:58;;;;;;;9.30;9.00;;;14.00;99.90;;;;;;6246199;22;20205;-81
2023/08/06 03:48:25;;;;;;;9.40;9.10;;;14.00;99.90;;;;;;6259510;22;20205;-81
2023/08/06 03:50:52;;;;;;;9.47;9.17;;;14.00;99.90;;;;;;6258868;22;20193;-81
2023/08/06 03:53:21;;;;;;;9.60;9.30;;;13.90;99.90;;;;;;6259411;22;20214;-81
2023/08/06 03:55:48;;;;;;;9.47;9.17;;;13.90;99.90;;;;;;6259769;22;20202;-81
2023/08/06 03:58:15;;;;;;;9.50;9.20;;;13.80;99.90;;;;;;6259542;22;20190;-81
2023/08/06 04:00:42;;;;;;;9.33;9.03;;;13.80;99.90;;;;;;6257813;22;20220;-81
2023/08/06 04:03:09;;;;;;;9.60;9.30;;;13.80;99.90;;;;;;6258829;22;20233;-81
2023/08/06 04:05:36;;;;;;;9.37;9.07;;;13.70;99.90;;;;;;6259364;22;20190;-81
2023/08/06 04:08:03;;;;;;;9.33;9.03;;;13.70;99.90;;;;;;6246059;22;20194;-82
2023/08/06 04:10:32;;;;;;;9.50;9.20;;;13.70;99.90;;;;;;6258394;22;20202;-81
2023/08/06 04:12:59;;;;;;;9.33;9.03;;;13.70;99.90;;;;;;6258062;22;20233;-82
2023/08/06 04:15:26;;;;;;;9.20;8.90;;;13.70;99.90;;;;;;6265456;22;20194;-81
2023/08/06 04:17:53;;;;;;;9.30;9.00;;;13.60;99.90;;;;;;6256191;22;20214;-82
2023/08/06 04:20:20;;;;;;;9.40;9.10;;;13.70;99.90;;;;;;6257602;22;20253;-81
2023/08/06 04:22:47;;;;;;;9.57;9.27;;;13.70;99.90;;;;;;6258394;22;20194;-81
2023/08/06 04:25:14;;;;;;;9.50;9.20;;;13.60;99.90;;;;;;6259579;22;20194;-81
2023/08/06 04:27:43;;;;;;;9.30;9.00;;;13.60;99.90;;;;;;6259068;22;20202;-82
2023/08/06 04:30:12;;;;;;;9.27;8.97;;;13.60;99.90;;;;;;6258901;22;20202;-81
2023/08/06 04:32:40;;;;;;;9.10;8.80;;;13.50;99.90;;;;;;6259961;22;20197;-81
2023/08/06 04:35:08;;;;;;;9.33;9.03;;;13.50;99.90;;;;;;6259653;22;20491;-81
2023/08/06 04:37:35;;;;;;;9.30;9.00;;;13.40;99.90;;;;;;6259632;22;20198;-81
2023/08/06 04:40:02;;;;;;;9.10;8.80;;;13.40;99.90;;;;;;6259765;22;20198;-81
2023/08/06 04:42:29;;;;;;;9.43;9.13;;;13.40;99.90;;;;;;6259928;22;20190;-81
2023/08/06 04:44:57;;;;;;;9.20;8.90;;;13.40;99.90;;;;;;6260116;22;20225;-82
2023/08/06 04:47:25;;;;;;;9.20;8.90;;;13.40;99.90;;;;;;6259663;22;20230;-82
2023/08/06 04:49:52;;;;;;;9.20;8.90;;;13.30;99.90;;;;;;6260083;22;20269;-81
2023/08/06 04:52:19;;;;;;;9.17;8.87;;;13.30;99.90;;;;;;6258687;22;20198;-81
2023/08/06 04:54:47;;;;;;;9.20;8.90;;;13.30;99.90;;;;;;6260120;22;20218;-82
2023/08/06 04:57:14;;;;;;;9.27;8.97;;;13.30;99.90;;;;;;6260048;22;20194;-81
2023/08/06 04:59:41;;;;;;;8.90;8.60;;;13.30;99.90;;;;;;6260638;22;20186;-81
2023/08/06 05:02:09;;;;;;;8.93;8.63;;;13.20;99.90;;;;;;6259748;22;20229;-83
2023/08/06 05:04:37;;;;;;;8.63;8.40;;;13.30;99.90;;;;;;6260291;22;20201;-81
2023/08/06 05:07:04;;;;;;;9.00;8.70;;;13.30;99.90;;;;;;6263950;22;20206;-81
2023/08/06 05:09:32;;;;;;;8.50;8.30;;;13.30;99.90;;;;;;6278207;22;20202;-81
2023/08/06 05:11:59;;;;;;;8.80;8.50;;;13.40;99.90;;;;;;6269862;22;20282;-81
2023/08/06 05:14:26;;;;;;;8.53;8.33;;;13.50;99.90;;;;;;6262155;22;20210;-81
2023/08/06 05:16:53;;;;;;;8.60;8.40;;;13.50;99.90;;;;;;6261687;22;20260;-82
2023/08/06 05:19:21;;;;;;;8.90;8.60;;;13.60;99.90;;;;;;6260029;22;20194;-82
2023/08/06 05:21:49;;;;;;;8.90;8.60;;;13.70;99.90;;;;;;6259524;22;20198;-81
2023/08/06 05:24:16;;;;;;;8.20;8.00;;;13.70;99.90;;;;;;6260093;22;20210;-81
2023/08/06 05:26:46;;;;;;;8.20;8.00;;;13.90;99.90;;;;;;6259458;22;20225;-80
2023/08/06 05:29:13;;;;;;;8.30;8.10;;;13.90;99.90;;;;;;6262357;22;20182;-80
2023/08/06 05:31:40;;;;;;;8.10;7.90;;;14.00;99.90;;;;;;6261474;22;20253;-81
2023/08/06 05:34:09;;;;;;;8.30;8.10;;;14.00;99.90;;;;;;6259738;22;20203;-80
2023/08/06 05:36:37;;;;;;;7.77;7.57;;;14.10;99.90;;;;;;6258679;22;20209;-81
2023/08/06 05:39:04;;;;;;;7.93;7.73;;;14.10;99.90;;;;;;6259366;22;20217;-82
2023/08/06 05:41:31;;;;;;;7.90;7.70;;;14.10;99.90;;;;;;6258830;22;20224;-81
2023/08/06 05:43:58;;;;;;;7.80;7.60;;;14.00;99.90;;;;;;6259444;22;20205;-81
2023/08/06 05:46:25;;;;;;;8.00;7.80;;;14.00;99.90;;;;;;6258895;22;20201;-81
2023/08/06 05:48:51;;;;;;;7.80;7.60;;;14.00;99.90;;;;;;6259492;22;20202;-81
2023/08/06 05:51:19;;;;;;;8.00;7.80;;;14.00;99.90;;;;;;6259510;22;20225;-82
2023/08/06 05:53:49;;;;;;;7.93;7.73;;;14.00;99.90;;;;;;6260235;22;20204;-81
2023/08/06 05:56:16;;;;;;;7.97;7.77;;;14.00;99.90;;;;;;6259133;22;20212;-83
2023/08/06 05:58:43;;;;;;;8.07;7.87;;;14.10;99.90;;;;;;6268614;22;20210;-81
2023/08/06 06:01:10;;;;;;;7.70;7.50;;;14.10;99.90;;;;;;6260235;22;20237;-81
2023/08/06 06:03:37;;;;;;;7.80;7.60;;;14.20;99.90;;;;;;6262099;22;20252;-82
2023/08/06 06:06:04;;;;;;;7.75;7.55;;;14.40;99.90;;;;;;6259915;22;20248;-83
2023/08/06 06:08:31;;;;;;;7.88;7.68;;;14.50;99.90;;;;;;6259040;22;20254;-82
2023/08/06 06:11:00;;;;;;;7.53;7.32;;;14.70;99.90;;;;;;6258392;22;20205;-83
2023/08/06 06:13:27;;;;;;;7.60;7.40;;;14.90;99.90;;;;;;6258839;22;20218;-82
2023/08/06 06:15:56;;;;;;;7.63;7.43;;;15.00;99.90;;;;;;6258725;22;20194;-82
2023/08/06 06:18:23;;;;;;;7.60;7.40;;;15.10;99.90;;;;;;6258160;22;20281;-82
2023/08/06 06:20:50;;;;;;;8.25;8.05;;;15.10;99.90;;;;;;6263530;22;20296;-82
2023/08/06 06:23:17;;;;;;;7.82;7.63;;;15.20;99.90;;;;;;6268031;22;20202;-82
2023/08/06 06:25:45;;;;;;;8.10;7.90;;;15.30;99.90;;;;;;6262300;22;20194;-82
2023/08/06 06:28:14;;;;;;;8.00;7.80;;;15.30;99.90;;;;;;6259592;22;20199;-83
2023/08/06 06:30:43;;;;;;;8.10;7.90;;;15.30;99.90;;;;;;6259281;22;20226;-83
2023/08/06 06:33:10;;;;;;;8.05;7.85;;;15.30;99.90;;;;;;6259422;22;20210;-82
2023/08/06 06:35:37;;;;;;;8.00;7.80;;;15.30;99.90;;;;;;6259317;22;20297;-82
2023/08/06 06:38:04;;;;;;;8.13;7.93;;;15.30;99.90;;;;;;6259651;22;20254;-83
2023/08/06 06:40:32;;;;;;;8.13;7.93;;;15.20;99.90;;;;;;6259245;22;20277;-83
2023/08/06 06:42:59;;;;;;;8.10;7.90;;;15.30;99.90;;;;;;6259257;22;20194;-83
2023/08/06 06:45:28;;;;;;;8.15;7.95;;;15.30;99.90;;;;;;6259356;22;20289;-82
2023/08/06 06:47:55;;;;;;;8.18;7.97;;;15.30;99.90;;;;;;6260196;22;20289;-82
2023/08/06 06:50:22;;;;;;;8.00;7.80;;;15.30;99.90;;;;;;6261238;22;20250;-81
2023/08/06 06:52:49;;;;;;;8.00;7.80;;;15.40;99.90;;;;;;6262477;22;20195;-80
2023/08/06 06:55:16;;;;;;;7.80;7.60;;;15.40;99.90;;;;;;6263728;22;20187;-80
2023/08/06 06:57:43;;;;;;;7.97;7.78;;;15.40;99.90;;;;;;6263340;22;20741;-80
2023/08/06 07:00:12;;;;;;;7.97;7.78;;;15.40;99.90;;;;;;6260335;22;20206;-80
2023/08/06 07:02:40;;;;;;;7.90;7.70;;;15.40;99.90;;;;;;6259281;22;20197;-80
2023/08/06 07:05:09;;;;;;;8.07;7.88;;;15.40;99.90;;;;;;6258778;22;20205;-80
2023/08/06 07:07:37;;;;;;;8.18;7.97;;;15.50;99.90;;;;;;6259532;22;20249;-80
2023/08/06 07:10:05;;;;;;;7.90;7.70;;;15.60;99.90;;;;;;6258591;22;20213;-79
2023/08/06 07:12:36;;;;;;;8.10;7.90;;;15.60;99.90;;;;;;6258408;22;20196;-80
2023/08/06 07:15:05;;;;;;;8.27;8.07;;;15.70;99.90;;;;;;6258955;22;20216;-80
2023/08/06 07:17:32;;;;;;;8.40;8.20;;;15.70;99.90;;;;;;6256895;22;20213;-80
2023/08/06 07:20:00;;;;;;;8.27;8.07;;;15.80;99.90;;;;;;6258831;22;20195;-80
2023/08/06 07:22:27;;;;;;;8.50;8.30;;;15.90;99.90;;;;;;6258116;22;20607;-80
2023/08/06 07:24:54;;;;;;;8.60;8.40;;;15.90;99.90;;;;;;6258836;22;20244;-80
2023/08/06 07:27:21;;;;;;;8.50;8.30;;;16.00;99.90;;;;;;6259955;22;20206;-81
2023/08/06 07:29:49;;;;;;;8.52;8.32;;;16.10;99.90;;;;;;6259686;22;20229;-81
2023/08/06 07:32:16;;;;;;;8.88;8.68;;;16.20;99.90;;;;;;6258631;22;20230;-81
2023/08/06 07:34:43;;;;;;;8.60;8.40;;;16.20;99.90;;;;;;6259822;22;20210;-80
2023/08/06 07:37:12;;;;;;;8.88;8.68;;;16.30;99.90;;;;;;6258758;22;20210;-80
2023/08/06 07:39:39;;;;;;;9.20;8.90;;;16.40;99.90;;;;;;6260015;22;20190;-80
2023/08/06 07:42:07;;;;;;;9.45;9.15;;;16.40;99.90;;;;;;6259657;22;20256;-81
2023/08/06 07:44:34;;;;;;;8.98;8.75;;;16.50;99.90;;;;;;6266516;22;20221;-79
2023/08/06 07:47:01;;;;;;;9.25;8.95;;;16.70;99.90;;;;;;6255267;22;20218;-81
2023/08/06 07:49:28;;;;;;;9.30;9.00;;;16.80;99.90;;;;;;6260104;22;20209;-80
2023/08/06 07:51:55;;;;;;;9.85;9.55;;;17.00;99.90;;;;;;6258824;22;20199;-81
2023/08/06 07:54:24;;;;;;;9.68;9.38;;;17.20;99.90;;;;;;6260970;22;20207;-81
2023/08/06 07:56:51;;;;;;;9.90;9.60;;;17.30;99.90;;;;;;6261393;22;20231;-81
2023/08/06 07:59:18;;;;;;;10.25;9.95;;;17.40;99.90;;;;;;6262359;22;20204;-81
2023/08/06 08:01:45;;;;;;;9.90;9.60;;;17.40;99.90;;;;;;6265271;22;20260;-81
2023/08/06 08:04:12;;;;;;;10.00;9.70;;;17.30;99.90;;;;;;6272180;22;20191;-80
2023/08/06 08:06:39;;;;;;;9.80;9.50;;;17.30;99.90;;;;;;6275857;22;20185;-80
2023/08/06 08:09:06;;;;;;;9.40;9.10;;;17.20;99.90;;;;;;6275313;22;20190;-81
2023/08/06 08:11:34;;;;;;;9.40;9.10;;;17.00;99.90;;;;;;6274340;22;20217;-80
2023/08/06 08:14:02;;;;;;;9.38;9.07;;;16.80;99.90;;;;;;6275703;22;20225;-80
2023/08/06 08:16:29;;;;;;;9.50;9.20;;;16.60;99.90;;;;;;6275400;22;20186;-81
2023/08/06 08:18:56;;;;;;;9.40;9.10;;;16.50;99.90;;;;;;6274992;22;20190;-80
2023/08/06 08:21:25;;;;;;;9.45;9.15;;;16.30;99.90;;;;;;6273998;22;20265;-80
2023/08/06 08:23:52;;;;;;;10.00;9.70;;;16.20;99.90;;;;;;6273408;22;20217;-80
2023/08/06 08:26:19;;;;;;;9.88;9.57;;;16.10;99.90;;;;;;6273689;22;20179;-80
2023/08/06 08:28:48;;;;;;;9.80;9.50;;;16.10;99.90;;;;;;6273080;22;20207;-81
2023/08/06 08:31:16;;;;;;;9.60;9.30;;;16.00;99.90;;;;;;6272887;22;20198;-81
2023/08/06 08:33:43;;;;;;;9.40;9.10;;;16.10;99.90;;;;;;6272804;22;20202;-80
2023/08/06 08:36:10;;;;;;;9.25;8.95;;;16.30;99.90;;;;;;6273441;22;20222;-80
2023/08/06 08:38:37;;;;;;;9.52;9.23;;;16.30;99.90;;;;;;6273792;22;20198;-81
2023/08/06 08:41:05;;;;;;;9.48;9.18;;;16.40;99.90;;;;;;6272829;22;20193;-81
2023/08/06 08:43:32;;;;;;;9.40;9.10;;;16.50;99.90;;;;;;6269141;22;20229;-81
2023/08/06 08:46:03;;;;;;;9.25;8.95;;;16.40;99.90;;;;;;6266033;22;20201;-81
2023/08/06 08:48:30;;;;;;;9.70;9.40;;;16.30;99.90;;;;;;6257996;22;20218;-81
2023/08/06 08:50:58;;;;;;;9.82;9.52;;;16.30;99.90;;;;;;6257399;22;20206;-81
2023/08/06 08:53:26;;;;;;;9.90;9.60;;;16.20;99.90;;;;;;6258855;22;20262;-80
2023/08/06 08:55:54;;;;;;;9.60;9.30;;;16.30;99.90;;;;;;6272651;22;20213;-81
2023/08/06 08:58:22;;;;;;;9.50;9.20;;;16.30;99.90;;;;;;6276360;22;20213;-81
2023/08/06 09:00:49;;;;;;;9.15;8.85;;;16.30;99.90;;;;;;6272109;22;20206;-82
2023/08/06 09:03:18;;;;;;;9.20;8.90;;;16.30;99.90;;;;;;6261310;22;20229;-81
2023/08/06 09:05:46;;;;;;;9.38;9.07;;;16.30;99.90;;;;;;6260938;22;20206;-81
2023/08/06 09:08:19;;;;;;;9.23;8.93;;;16.10;99.90;;;;;;6261236;22;20210;-81
2023/08/06 09:10:49;;;;;;;9.10;8.80;;;16.10;99.90;;;;;;6260387;22;20194;-80
2023/08/06 09:13:17;;;;;;;9.25;8.95;;;16.10;99.90;;;;;;6260318;22;20194;-81
2023/08/06 09:15:45;;;;;;;9.60;9.30;;;16.30;99.90;;;;;;6259355;22;20206;-81
2023/08/06 09:18:13;;;;;;;9.50;9.20;;;16.40;99.90;;;;;;6259585;22;20206;-81
2023/08/06 09:20:41;;;;;;;9.35;9.05;;;16.60;99.90;;;;;;6260112;22;20202;-81
2023/08/06 09:23:10;;;;;;;9.55;9.25;;;16.80;99.90;;;;;;6258920;22;20218;-81
2023/08/06 15:26:03;;;;;;;9.60;9.30;;;15.10;99.90;;;;;;6263144;22;20209;-81
2023/08/06 15:28:31;;;;;;;9.93;9.63;;;15.00;99.90;;;;;;6265892;22;20237;-82
2023/08/06 15:30:58;;;;;;;9.80;9.50;;;15.00;99.90;;;;;;6266170;22;20258;-81
2023/08/06 15:33:26;;;;;;;9.90;9.60;;;15.10;99.90;;;;;;6264835;22;20217;-82
2023/08/06 15:35:53;;;;;;;9.93;9.63;;;15.10;99.90;;;;;;6264429;22;20206;-82
2023/08/06 15:38:20;;;;;;;10.00;9.70;;;15.20;99.90;;;;;;6266092;22;20228;-83
2023/08/06 15:40:51;;;;;;;9.85;9.55;;;15.20;99.90;;;;;;6265046;22;20190;-83
2023/08/06 15:43:19;;;;;;;9.43;9.13;;;15.30;99.90;;;;;;6269206;22;20202;-81
2023/08/06 15:45:46;;;;;;;9.77;9.48;;;15.30;99.90;;;;;;6265397;22;20257;-81
2023/08/06 15:48:14;;;;;;;10.10;9.80;;;15.30;99.90;;;;;;6265261;22;20222;-82
2023/08/06 15:50:41;;;;;;;9.80;9.50;;;15.30;99.90;;;;;;6265973;22;20258;-82
2023/08/06 15:53:09;;;;;;;10.00;9.70;;;15.30;99.90;;;;;;6262105;22;20190;-83
2023/08/06 15:55:37;;;;;;;10.20;9.90;;;15.30;99.90;;;;;;6265942;22;21123;-82
2023/08/06 15:58:05;;;;;;;10.05;9.75;;;15.30;99.90;;;;;;6264373;22;20194;-81
2023/08/06 16:00:34;;;;;;;9.95;9.65;;;15.20;99.90;;;;;;6264407;22;20245;-82
2023/08/06 16:03:01;;;;;;;9.95;9.65;;;15.20;99.90;;;;;;6264443;22;20225;-83
2023/08/06 16:05:28;;;;;;;9.80;9.50;;;15.20;99.90;;;;;;6265023;22;20296;-82
2023/08/06 16:07:56;;;;;;;10.00;9.70;;;15.20;99.90;;;;;;6263464;22;20317;-82
2023/08/06 16:10:23;;;;;;;9.70;9.40;;;15.20;99.90;;;;;;6264823;22;20210;-81
2023/08/06 16:12:50;;;;;;;9.73;9.43;;;15.30;99.90;;;;;;6262324;22;20202;-81
2023/08/06 16:15:19;;;;;;;9.60;9.30;;;15.30;99.90;;;;;;6262489;22;20202;-81
2023/08/06 16:17:48;;;;;;;9.57;9.27;;;15.30;99.90;;;;;;6260969;22;20289;-83
2023/08/06 16:20:15;;;;;;;9.57;9.27;;;15.40;99.90;;;;;;6264229;22;20250;-81
2023/08/06 16:22:43;;;;;;;9.52;9.23;;;15.50;99.90;;;;;;6260522;22;20194;-81
2023/08/06 16:25:12;;;;;;;9.48;9.18;;;15.50;99.90;;;;;;6262412;22;20221;-81
2023/08/06 16:27:39;;;;;;;9.70;9.40;;;15.50;99.90;;;;;;6262735;22;20242;-81
2023/08/06 16:30:08;;;;;;;9.32;9.02;;;15.40;99.90;;;;;;6260138;22;20334;-81
2023/08/06 16:32:36;;;;;;;9.50;9.20;;;15.30;99.90;;;;;;6259223;22;20198;-81
2023/08/06 16:35:06;;;;;;;9.32;9.02;;;15.30;99.90;;;;;;6267860;22;20206;-82
2023/08/06 16:37:33;;;;;;;9.73;9.43;;;15.40;99.90;;;;;;6273150;22;20194;-81
2023/08/06 16:40:01;;;;;;;9.75;9.45;;;15.40;99.90;;;;;;6275298;22;20198;-80
2023/08/06 16:42:28;;;;;;;9.90;9.60;;;15.50;99.90;;;;;;6267931;22;20198;-82
2023/08/06 16:44:55;;;;;;;9.85;9.55;;;15.60;99.90;;;;;;6264175;22;20202;-81
2023/08/06 16:47:23;;;;;;;9.75;9.45;;;15.70;99.90;;;;;;6261751;22;20282;-82
2023/08/06 16:49:50;;;;;;;9.77;9.48;;;15.80;99.90;;;;;;6260683;22;20190;-82
2023/08/06 16:52:19;;;;;;;9.77;9.48;;;15.90;99.90;;;;;;6260789;22;20233;-81
2023/08/06 16:54:46;;;;;;;10.00;9.70;;;15.90;99.90;;;;;;6260689;22;20198;-81
2023/08/06 16:57:14;;;;;;;10.20;9.90;;;15.80;99.90;;;;;;6266580;22;20198;-82
2023/08/06 16:59:41;;;;;;;10.48;10.18;;;15.80;99.90;;;;;;6276976;22;20190;-82
2023/08/06 17:02:08;;;;;;;10.48;10.18;;;15.70;99.90;;;;;;6277294;22;20179;-82
2023/08/06 17:04:35;;;;;;;10.20;9.90;;;15.70;99.90;;;;;;6278183;22;20209;-81
2023/08/06 17:07:02;;;;;;;10.60;10.30;;;15.70;99.90;;;;;;6277831;22;20190;-81
2023/08/06 17:09:31;;;;;;;10.43;10.13;;;15.60;99.90;;;;;;6266753;22;20201;-81
2023/08/06 17:11:58;;;;;;;10.35;10.05;;;15.50;99.90;;;;;;6264871;22;20241;-81
2023/08/06 17:14:25;;;;;;;10.25;9.95;;;15.50;99.90;;;;;;6266476;22;20254;-82
2023/08/06 17:16:52;;;;;;;10.20;9.90;;;15.40;99.90;;;;;;6263992;22;20222;-82
2023/08/06 17:19:19;;;;;;;10.30;10.00;;;15.40;99.90;;;;;;6262449;22;20213;-81
2023/08/06 17:21:46;;;;;;;10.18;9.88;;;15.30;99.90;;;;;;6263011;22;20204;-80
2023/08/06 17:24:13;;;;;;;10.27;9.98;;;15.20;99.90;;;;;;6262968;22;20201;-82
2023/08/06 17:26:41;;;;;;;10.50;10.20;;;15.20;99.90;;;;;;6266765;22;20182;-81
2023/08/06 17:29:08;;;;;;;10.30;10.00;;;15.20;99.90;;;;;;6265900;22;20190;-81
2023/08/06 17:31:36;;;;;;;10.25;9.95;;;15.20;99.90;;;;;;6262824;22;20206;-81
2023/08/06 17:34:03;;;;;;;10.25;9.95;;;15.20;99.90;;;;;;6268644;22;20201;-82
2023/08/06 17:36:30;;;;;;;10.20;9.90;;;15.20;99.90;;;;;;6271445;22;20206;-81
2023/08/06 17:38:57;;;;;;;10.05;9.75;;;15.20;99.90;;;;;;6271200;22;20266;-81
2023/08/06 17:41:24;;;;;;;10.20;9.90;;;15.20;99.90;;;;;;6273739;22;20230;-82
2023/08/06 17:43:53;;;;;;;10.07;9.77;;;15.20;99.90;;;;;;6271620;22;20206;-81
2023/08/06 17:46:21;;;;;;;10.10;9.80;;;15.10;99.90;;;;;;6273698;22;20201;-81
2023/08/06 17:48:48;;;;;;;10.50;10.20;;;15.10;99.90;;;;;;6271781;22;20198;-81
2023/08/06 17:51:15;;;;;;;10.30;10.00;;;15.10;99.90;;;;;;6273060;22;20209;-82
2023/08/06 17:53:42;;;;;;;10.37;10.07;;;15.10;99.90;;;;;;6273833;22;20204;-81
2023/08/06 17:56:09;;;;;;;10.48;10.18;;;15.10;99.90;;;;;;6267186;22;20198;-82
2023/08/06 17:58:36;;;;;;;10.30;10.00;;;15.10;99.90;;;;;;6273925;22;20202;-81
2023/08/06 18:01:05;;;;;;;10.38;10.07;;;15.10;99.90;;;;;;6270060;22;20237;-81
2023/08/06 18:03:32;;;;;;;10.40;10.10;;;15.10;99.90;;;;;;6268960;22;20753;-81
2023/08/06 18:06:00;;;;;;;10.80;10.50;;;15.10;99.90;;;;;;6269072;22;20201;-82
2023/08/06 18:08:27;;;;;;;10.80;10.50;;;15.10;99.90;;;;;;6266714;22;20190;-82
2023/08/06 18:10:54;;;;;;;10.60;10.30;;;15.10;99.90;;;;;;6267377;22;20237;-82
2023/08/06 18:13:22;;;;;;;10.77;10.48;;;15.00;99.90;;;;;;6261972;22;20228;-82
2023/08/06 18:15:50;;;;;;;11.00;10.70;;;15.00;99.90;;;;;;6260117;22;20221;-82
2023/08/06 18:18:19;;;;;;;10.55;10.25;;;14.90;99.90;;;;;;6260291;22;20194;-82
2023/08/06 18:20:46;;;;;;;10.77;10.47;;;14.70;99.90;;;;;;6267896;22;20201;-82
2023/08/06 18:23:13;;;;;;;10.63;10.33;;;14.50;99.90;;;;;;6258105;22;20210;-82
2023/08/06 18:25:40;;;;;;;10.70;10.40;;;14.40;99.90;;;;;;6258207;22;20258;-82
2023/08/06 18:28:07;;;;;;;10.63;10.33;;;14.30;99.90;;;;;;6259681;22;20278;-82
2023/08/06 18:30:34;;;;;;;10.90;10.60;;;14.30;99.90;;;;;;6260172;22;20198;-82
2023/08/06 18:33:02;;;;;;;10.60;10.30;;;14.20;99.90;;;;;;6260842;22;20204;-81
2023/08/06 18:35:31;;;;;;;10.50;10.20;;;14.20;99.90;;;;;;6260096;22;20254;-82
2023/08/06 18:37:59;;;;;;;10.30;10.00;;;14.10;99.90;;;;;;6260508;22;20190;-80
2023/08/06 18:40:29;;;;;;;10.40;10.10;;;14.10;99.90;;;;;;6260171;22;20214;-82
2023/08/06 18:42:56;;;;;;;10.90;10.60;;;14.10;99.90;;;;;;6261095;22;20229;-82
2023/08/06 18:45:23;;;;;;;10.37;10.07;;;14.10;99.90;;;;;;6262458;22;20258;-82